createdAt,value
2019-05-17T00:02:53.463Z,26.70
2019-05-17T00:05:26.363Z,26.70
2019-05-17T00:07:56.805Z,26.80
2019-05-17T00:10:27.653Z,26.70
2019-05-17T00:12:58.640Z,26.80
2019-05-17T00:15:29.486Z,26.80
2019-05-17T00:18:00.267Z,26.90
2019-05-17T00:20:31.328Z,27.00
2019-05-17T00:23:02.188Z,27.00
2019-05-17T00:25:33.006Z,27.10
2019-05-17T00:28:03.784Z,27.10
2019-05-17T00:30:36.981Z,27.20
2019-05-17T00:33:07.941Z,27.30
2019-05-17T00:35:39.186Z,27.40
2019-05-17T00:38:09.945Z,27.40
2019-05-17T00:40:41.704Z,27.50
2019-05-17T00:43:12.649Z,27.60
2019-05-17T00:45:43.443Z,27.60
2019-05-17T00:48:17.226Z,27.60
2019-05-17T00:50:53.506Z,27.70
2019-05-17T00:53:20.185Z,27.70
2019-05-17T00:55:51.017Z,27.70
2019-05-17T00:58:22.441Z,27.70
2019-05-17T01:00:56.885Z,27.70
2019-05-17T01:03:26.953Z,27.70
2019-05-17T01:05:58.264Z,27.70
2019-05-17T01:08:29.174Z,27.80
2019-05-17T01:11:00.130Z,27.80
2019-05-17T01:13:30.820Z,27.80
2019-05-17T01:16:01.953Z,27.80
2019-05-17T01:18:32.766Z,27.90
2019-05-17T01:21:06.260Z,28.00
2019-05-17T01:23:36.705Z,28.00
2019-05-17T01:26:07.688Z,28.10
2019-05-17T01:28:39.448Z,28.00
2019-05-17T01:31:10.582Z,28.10
2019-05-17T01:33:41.544Z,28.20
2019-05-17T01:36:12.355Z,28.20
2019-05-17T01:38:43.249Z,28.30
2019-05-17T01:41:14.227Z,28.40
2019-05-17T01:43:49.626Z,28.40
2019-05-17T01:46:21.317Z,28.50
2019-05-17T01:48:52.660Z,28.60
2019-05-17T01:51:23.627Z,28.60
2019-05-17T01:53:54.421Z,28.70
2019-05-17T01:56:26.277Z,28.80
2019-05-17T01:58:58.056Z,28.90
2019-05-17T02:01:29.253Z,29.00
2019-05-17T02:04:00.086Z,29.00
2019-05-17T02:06:31.656Z,29.10
2019-05-17T02:09:02.569Z,29.20
2019-05-17T02:11:33.398Z,29.20
2019-05-17T02:14:06.809Z,29.30
2019-05-17T02:16:37.691Z,29.40
2019-05-17T02:19:08.705Z,29.40
2019-05-17T02:21:39.673Z,29.50
2019-05-17T02:24:10.561Z,29.50
2019-05-17T02:26:41.440Z,29.60
2019-05-17T02:29:12.269Z,29.60
2019-05-17T02:31:43.715Z,29.70
2019-05-17T02:34:14.753Z,29.70
2019-05-17T02:36:45.542Z,29.70
2019-05-17T02:39:16.838Z,29.80
2019-05-17T02:41:47.744Z,29.90
2019-05-17T02:44:18.668Z,29.90
2019-05-17T02:46:49.509Z,30.00
2019-05-17T02:49:23.355Z,30.10
2019-05-17T02:51:55.561Z,30.10
2019-05-17T02:54:26.661Z,30.20
2019-05-17T02:56:58.311Z,30.20
2019-05-17T02:59:29.282Z,30.30
2019-05-17T03:02:03.575Z,30.30
2019-05-17T03:04:33.292Z,30.40
2019-05-17T03:07:04.256Z,30.40
2019-05-17T03:09:35.165Z,30.50
2019-05-17T03:12:05.794Z,30.50
2019-05-17T03:14:36.619Z,30.60
2019-05-17T03:17:07.561Z,30.60
2019-05-17T03:19:38.390Z,30.60
2019-05-17T03:22:09.396Z,30.60
2019-05-17T03:24:40.120Z,30.70
2019-05-17T03:27:13.468Z,30.80
2019-05-17T03:29:44.248Z,30.80
2019-05-17T03:32:17.254Z,30.80
2019-05-17T03:34:55.248Z,30.80
2019-05-17T03:37:29.976Z,30.80
2019-05-17T03:39:54.077Z,30.80
2019-05-17T03:42:25.350Z,30.80
2019-05-17T03:44:57.084Z,30.80
2019-05-17T03:47:28.275Z,30.80
2019-05-17T03:50:02.786Z,30.80
2019-05-17T03:52:33.316Z,30.70
2019-05-17T03:55:04.164Z,30.70
2019-05-17T03:57:35.246Z,30.70
2019-05-17T04:00:08.267Z,30.70
2019-05-17T04:02:39.219Z,30.70
2019-05-17T04:05:14.708Z,30.70
2019-05-17T04:07:45.919Z,30.70
2019-05-17T04:10:17.135Z,30.70
2019-05-17T04:12:47.922Z,30.80
2019-05-17T04:15:19.472Z,30.90
2019-05-17T04:17:52.886Z,31.00
2019-05-17T04:20:22.701Z,31.10
2019-05-17T04:22:55.914Z,31.20
2019-05-17T04:25:27.171Z,31.30
2019-05-17T04:27:58.252Z,31.40
2019-05-17T04:30:32.280Z,31.50
2019-05-17T04:33:03.576Z,31.60
2019-05-17T04:35:33.697Z,31.70
2019-05-17T04:38:04.717Z,31.70
2019-05-17T04:40:35.569Z,31.70
2019-05-17T04:43:06.656Z,31.70
2019-05-17T04:45:37.675Z,31.80
2019-05-17T04:48:08.525Z,31.90
2019-05-17T04:50:42.723Z,31.90
2019-05-17T04:53:13.248Z,32.00
2019-05-17T04:55:44.346Z,32.10
2019-05-17T04:58:15.218Z,32.20
2019-05-17T05:00:46.128Z,32.20
2019-05-17T05:03:17.185Z,32.20
2019-05-17T05:05:47.966Z,32.30
2019-05-17T05:08:22.212Z,32.30
2019-05-17T05:10:53.497Z,32.40
2019-05-17T05:13:23.905Z,32.30
2019-05-17T05:15:55.318Z,32.40
2019-05-17T05:18:26.479Z,32.40
2019-05-17T05:20:58.014Z,32.50
2019-05-17T05:23:28.920Z,32.50
2019-05-17T05:25:59.679Z,32.60
2019-05-17T05:28:31.739Z,32.60
2019-05-17T05:31:03.380Z,32.70
2019-05-17T05:33:34.359Z,32.70
2019-05-17T05:36:05.537Z,32.70
2019-05-17T05:38:37.555Z,32.80
2019-05-17T05:41:08.847Z,32.80
2019-05-17T05:43:45.007Z,32.80
2019-05-17T05:46:17.057Z,32.90
2019-05-17T05:48:49.218Z,32.80
2019-05-17T05:51:21.616Z,32.90
2019-05-17T05:53:54.307Z,33.00
2019-05-17T05:56:25.563Z,33.00
2019-05-17T05:58:56.694Z,33.10
2019-05-17T06:01:27.830Z,33.10
2019-05-17T06:03:58.862Z,33.10
2019-05-17T06:06:32.040Z,33.10
2019-05-17T06:09:02.754Z,33.20
2019-05-17T06:11:33.926Z,33.20
2019-05-17T06:14:04.945Z,33.30
2019-05-17T06:16:36.053Z,33.30
2019-05-17T06:19:07.220Z,33.30
2019-05-17T06:21:38.327Z,33.30
2019-05-17T06:24:11.483Z,33.30
2019-05-17T06:26:42.097Z,33.30
2019-05-17T06:29:13.201Z,33.30
2019-05-17T06:31:44.106Z,33.40
2019-05-17T06:34:15.530Z,33.40
2019-05-17T06:36:46.494Z,33.30
2019-05-17T06:39:17.449Z,33.40
2019-05-17T06:41:52.197Z,33.40
2019-05-17T06:44:23.210Z,33.40
2019-05-17T06:46:54.872Z,33.40
2019-05-17T06:49:25.820Z,33.40
2019-05-17T06:51:56.728Z,33.50
2019-05-17T06:54:27.659Z,33.60
2019-05-17T06:56:59.114Z,33.60
2019-05-17T06:59:30.070Z,33.60
2019-05-17T07:02:00.859Z,33.70
2019-05-17T07:04:31.758Z,33.60
2019-05-17T07:07:04.013Z,33.60
2019-05-17T07:09:36.101Z,33.60
2019-05-17T07:12:07.221Z,33.60
2019-05-17T07:14:40.005Z,33.60
2019-05-17T07:17:10.588Z,33.60
2019-05-17T07:19:41.565Z,33.70
2019-05-17T07:22:12.481Z,33.70
2019-05-17T07:24:43.169Z,33.80
2019-05-17T07:27:13.973Z,33.80
2019-05-17T07:29:45.042Z,33.80
2019-05-17T07:32:16.041Z,33.90
2019-05-17T07:34:46.740Z,33.90
2019-05-17T07:37:19.466Z,34.00
2019-05-17T07:39:59.581Z,34.00
2019-05-17T07:42:21.886Z,34.10
2019-05-17T07:44:52.712Z,34.00
2019-05-17T07:47:23.559Z,34.10
2019-05-17T07:49:54.703Z,34.10
2019-05-17T07:52:25.581Z,34.20
2019-05-17T07:54:56.877Z,34.20
2019-05-17T07:57:29.974Z,34.20
2019-05-17T08:00:14.568Z,34.20
2019-05-17T08:02:45.515Z,34.30
2019-05-17T08:05:16.618Z,34.20
2019-05-17T08:07:49.993Z,34.20
2019-05-17T08:10:21.367Z,34.30
2019-05-17T08:12:52.195Z,34.30
2019-05-17T08:15:24.296Z,34.30
2019-05-17T08:17:55.213Z,34.30
2019-05-17T08:20:25.981Z,34.30
2019-05-17T08:22:59.660Z,34.40
2019-05-17T08:25:30.593Z,34.40
2019-05-17T08:28:01.478Z,34.40
2019-05-17T08:30:32.488Z,34.20
2019-05-17T08:33:03.487Z,34.20
2019-05-17T08:35:34.462Z,34.20
2019-05-17T08:38:19.739Z,34.30
2019-05-17T08:41:06.150Z,34.20
2019-05-17T08:43:45.884Z,34.20
2019-05-17T08:46:23.183Z,34.20
2019-05-17T08:48:54.310Z,34.20
2019-05-17T08:51:26.050Z,34.10
2019-05-17T08:53:57.104Z,34.10
2019-05-17T08:56:30.688Z,34.10
2019-05-17T08:59:15.429Z,34.10
2019-05-17T09:01:50.721Z,34.10
2019-05-17T09:04:21.614Z,34.10
2019-05-17T09:06:52.509Z,34.10
2019-05-17T09:09:23.427Z,34.10
2019-05-17T09:11:54.346Z,34.10
2019-05-17T09:14:25.383Z,34.10
2019-05-17T09:16:56.358Z,34.10
2019-05-17T09:19:29.971Z,34.00
2019-05-17T09:22:00.983Z,33.90
2019-05-17T09:24:31.989Z,33.90
2019-05-17T09:27:02.890Z,33.90
2019-05-17T09:29:33.721Z,33.80
2019-05-17T09:32:05.293Z,33.80
2019-05-17T09:34:36.379Z,33.90
2019-05-17T09:37:09.729Z,33.80
2019-05-17T09:39:40.159Z,33.80
2019-05-17T09:42:11.366Z,33.80
2019-05-17T09:44:42.151Z,33.80
2019-05-17T09:47:13.193Z,33.80
2019-05-17T09:49:44.319Z,33.70
2019-05-17T09:52:15.623Z,33.70
2019-05-17T09:54:46.439Z,33.60
2019-05-17T09:57:17.604Z,33.70
2019-05-17T09:59:49.599Z,33.60
2019-05-17T10:02:21.078Z,33.60
2019-05-17T10:04:52.703Z,33.60
2019-05-17T10:07:23.583Z,33.60
2019-05-17T10:09:59.550Z,33.60
2019-05-17T10:12:29.489Z,33.60
2019-05-17T10:15:00.510Z,33.60
2019-05-17T10:17:31.601Z,33.50
2019-05-17T10:20:02.393Z,33.60
2019-05-17T10:22:33.178Z,33.50
2019-05-17T10:25:04.188Z,33.40
2019-05-17T10:27:35.007Z,33.40
2019-05-17T10:30:10.063Z,33.40
2019-05-17T10:32:40.897Z,33.40
2019-05-17T10:35:12.283Z,33.30
2019-05-17T10:37:42.955Z,33.30
2019-05-17T10:40:14.488Z,33.20
2019-05-17T10:42:45.379Z,33.20
2019-05-17T10:45:16.548Z,33.10
2019-05-17T10:47:47.359Z,33.10
2019-05-17T10:50:20.404Z,33.00
2019-05-17T10:52:50.767Z,33.00
2019-05-17T10:55:21.717Z,33.00
2019-05-17T10:57:52.949Z,32.90
2019-05-17T11:00:24.331Z,32.90
2019-05-17T11:02:55.062Z,32.80
2019-05-17T11:05:26.001Z,32.80
2019-05-17T11:07:56.869Z,32.80
2019-05-17T11:10:27.804Z,32.70
2019-05-17T11:12:58.645Z,32.60
2019-05-17T11:15:29.523Z,32.60
2019-05-17T11:18:00.452Z,32.60
2019-05-17T11:20:31.526Z,32.60
2019-05-17T11:23:02.429Z,32.50
2019-05-17T11:25:33.289Z,32.50
2019-05-17T11:28:04.100Z,32.40
2019-05-17T11:30:34.927Z,32.40
2019-05-17T11:33:06.074Z,32.30
2019-05-17T11:35:36.964Z,32.40
2019-05-17T11:38:07.804Z,32.30
2019-05-17T11:40:38.576Z,32.30
2019-05-17T11:43:09.506Z,32.30
2019-05-17T11:45:40.381Z,32.20
2019-05-17T11:48:11.327Z,32.20
2019-05-17T11:50:42.275Z,32.10
2019-05-17T11:53:13.175Z,32.10
2019-05-17T11:55:44.124Z,32.10
2019-05-17T11:58:15.028Z,32.10
2019-05-17T12:00:45.890Z,32.10
2019-05-17T12:03:16.713Z,32.10
2019-05-17T12:05:47.617Z,32.10
2019-05-17T12:08:18.377Z,32.00
2019-05-17T12:10:49.054Z,32.00
2019-05-17T12:13:20.023Z,32.00
2019-05-17T12:15:50.818Z,32.00
2019-05-17T12:18:21.521Z,31.90
2019-05-17T12:20:52.522Z,31.90
2019-05-17T12:23:23.515Z,31.90
2019-05-17T12:25:54.239Z,31.90
2019-05-17T12:28:25.090Z,31.80
2019-05-17T12:30:55.923Z,31.80
2019-05-17T12:33:26.838Z,31.80
2019-05-17T12:35:57.702Z,31.80
2019-05-17T12:38:28.404Z,31.70
2019-05-17T12:40:59.353Z,31.70
2019-05-17T12:43:30.136Z,31.70
2019-05-17T12:46:01.784Z,31.60
2019-05-17T12:48:33.169Z,31.60
2019-05-17T12:51:03.930Z,31.50
2019-05-17T12:53:35.027Z,31.50
2019-05-17T12:56:05.806Z,31.50
2019-05-17T12:58:36.750Z,31.50
2019-05-17T13:01:07.775Z,31.50
2019-05-17T13:03:38.614Z,31.50
2019-05-17T13:06:09.421Z,31.50
2019-05-17T13:08:40.549Z,31.40
2019-05-17T13:11:11.353Z,31.40
2019-05-17T13:13:42.267Z,31.40
2019-05-17T13:16:17.894Z,31.40
2019-05-17T13:18:45.089Z,31.40
2019-05-17T13:21:15.980Z,31.40
2019-05-17T13:23:46.630Z,31.30
2019-05-17T13:26:17.573Z,31.30
2019-05-17T13:28:48.384Z,31.30
2019-05-17T13:31:19.428Z,31.30
2019-05-17T13:33:50.251Z,31.30
2019-05-17T13:36:21.145Z,31.20
2019-05-17T13:38:51.883Z,31.20
2019-05-17T13:41:22.833Z,31.20
2019-05-17T13:43:53.500Z,31.20
2019-05-17T13:46:32.904Z,31.10
2019-05-17T13:48:56.620Z,31.10
2019-05-17T13:51:27.546Z,31.10
2019-05-17T13:53:58.353Z,31.10
2019-05-17T13:56:29.121Z,31.10
2019-05-17T13:58:59.901Z,31.10
2019-05-17T14:01:30.801Z,31.00
2019-05-17T14:04:01.581Z,31.00
2019-05-17T14:06:32.487Z,30.90
2019-05-17T14:09:03.309Z,30.90
2019-05-17T14:11:34.212Z,30.90
2019-05-17T14:14:05.162Z,30.90
2019-05-17T14:16:35.952Z,30.80
2019-05-17T14:19:06.860Z,30.80
2019-05-17T14:21:37.760Z,30.80
2019-05-17T14:24:08.638Z,30.80
2019-05-17T14:26:39.551Z,30.80
2019-05-17T14:29:10.485Z,30.80
2019-05-17T14:31:41.416Z,30.80
2019-05-17T14:34:12.244Z,30.70
2019-05-17T14:36:43.096Z,30.70
2019-05-17T14:39:13.906Z,30.70
2019-05-17T14:41:44.781Z,30.60
2019-05-17T14:44:15.468Z,30.60
2019-05-17T14:46:46.375Z,30.60
2019-05-17T14:49:17.174Z,30.60
2019-05-17T14:51:47.976Z,30.60
2019-05-17T14:54:18.950Z,30.60
2019-05-17T14:56:49.578Z,30.60
2019-05-17T14:59:20.430Z,30.60
2019-05-17T15:01:51.283Z,30.60
2019-05-17T15:04:21.965Z,30.60
2019-05-17T15:06:52.988Z,30.60
2019-05-17T15:09:23.833Z,30.60
2019-05-17T15:11:54.511Z,30.60
2019-05-17T15:14:29.456Z,30.60
2019-05-17T15:16:58.043Z,30.60
2019-05-17T15:19:29.035Z,30.60
2019-05-17T15:21:59.841Z,30.60
2019-05-17T15:24:30.706Z,30.60
2019-05-17T15:27:05.923Z,30.60
2019-05-17T15:29:33.693Z,30.50
2019-05-17T15:32:04.535Z,30.50
2019-05-17T15:34:35.486Z,30.50
2019-05-17T15:37:06.568Z,30.50
2019-05-17T15:39:37.503Z,30.40
2019-05-17T15:42:08.398Z,30.40
2019-05-17T15:44:39.188Z,30.30
2019-05-17T15:47:09.990Z,30.30
2019-05-17T15:49:40.793Z,30.20
2019-05-17T15:52:11.667Z,30.20
2019-05-17T15:54:42.666Z,30.20
2019-05-17T15:57:13.400Z,30.20
2019-05-17T15:59:44.375Z,30.10
2019-05-17T16:02:15.309Z,30.10
2019-05-17T16:04:46.039Z,30.10
2019-05-17T16:07:16.818Z,30.00
2019-05-17T16:09:47.801Z,30.00
2019-05-17T16:12:18.864Z,29.90
2019-05-17T16:14:49.497Z,29.90
2019-05-17T16:17:20.414Z,29.80
2019-05-17T16:19:51.376Z,29.80
2019-05-17T16:22:22.168Z,29.80
2019-05-17T16:24:53.302Z,29.70
2019-05-17T16:27:24.209Z,29.70
2019-05-17T16:29:55.038Z,29.70
2019-05-17T16:32:25.935Z,29.70
2019-05-17T16:34:56.842Z,29.70
2019-05-17T16:37:27.758Z,29.60
2019-05-17T16:39:58.574Z,29.60
2019-05-17T16:42:29.556Z,29.60
2019-05-17T16:45:00.243Z,29.60
2019-05-17T16:47:31.863Z,29.60
2019-05-17T16:50:07.140Z,29.70
2019-05-17T16:52:37.993Z,29.70
2019-05-17T16:55:09.398Z,29.70
2019-05-17T16:57:40.381Z,29.70
2019-05-17T17:00:13.543Z,29.70
2019-05-17T17:02:44.433Z,29.70
2019-05-17T17:05:15.595Z,29.70
2019-05-17T17:07:46.290Z,29.70
2019-05-17T17:10:17.737Z,29.60
2019-05-17T17:12:48.724Z,29.60
2019-05-17T17:15:19.936Z,29.60
2019-05-17T17:17:50.942Z,29.60
2019-05-17T17:20:22.273Z,29.60
2019-05-17T17:22:53.162Z,29.50
2019-05-17T17:25:24.187Z,29.50
2019-05-17T17:27:55.553Z,29.40
2019-05-17T17:30:46.769Z,29.40
2019-05-17T17:33:17.722Z,29.40
2019-05-17T17:35:48.518Z,29.40
2019-05-17T17:38:19.436Z,29.40
2019-05-17T17:40:50.281Z,29.40
2019-05-17T17:43:21.279Z,29.30
2019-05-17T17:45:52.208Z,29.30
2019-05-17T17:48:23.281Z,29.30
2019-05-17T17:50:54.271Z,29.30
2019-05-17T17:53:25.213Z,29.30
2019-05-17T17:55:56.233Z,29.30
2019-05-17T17:58:27.165Z,29.30
2019-05-17T18:00:58.251Z,29.20
2019-05-17T18:03:29.004Z,29.30
2019-05-17T18:05:59.700Z,29.30
2019-05-17T18:08:30.470Z,29.30
2019-05-17T18:11:01.352Z,29.20
2019-05-17T18:13:32.317Z,29.20
2019-05-17T18:16:03.038Z,29.20
2019-05-17T18:18:34.006Z,29.20
2019-05-17T18:21:05.048Z,29.20
2019-05-17T18:23:35.832Z,29.20
2019-05-17T18:26:07.917Z,29.20
2019-05-17T18:28:38.823Z,29.20
2019-05-17T18:31:09.666Z,29.10
2019-05-17T18:33:40.424Z,29.10
2019-05-17T18:36:11.124Z,29.10
2019-05-17T18:38:42.638Z,29.10
2019-05-17T18:41:13.442Z,29.10
2019-05-17T18:43:44.166Z,29.10
2019-05-17T18:46:15.144Z,29.10
2019-05-17T18:48:46.003Z,29.10
2019-05-17T18:51:16.820Z,29.10
2019-05-17T18:53:48.083Z,29.20
2019-05-17T18:56:19.043Z,29.10
2019-05-17T18:58:49.982Z,29.10
2019-05-17T19:01:20.766Z,29.10
2019-05-17T19:03:51.773Z,29.10
2019-05-17T19:06:22.672Z,29.10
2019-05-17T19:08:53.431Z,29.10
2019-05-17T19:11:24.350Z,29.10
2019-05-17T19:13:55.133Z,29.10
2019-05-17T19:16:25.915Z,29.00
2019-05-17T19:18:56.657Z,29.10
2019-05-17T19:21:27.635Z,29.00
2019-05-17T19:23:58.513Z,29.00
2019-05-17T19:26:29.523Z,29.00
2019-05-17T19:29:00.309Z,29.00
2019-05-17T19:31:31.501Z,29.00
2019-05-17T19:34:02.387Z,29.00
2019-05-17T19:36:33.172Z,29.00
2019-05-17T19:39:04.168Z,29.00
2019-05-17T19:41:35.094Z,28.90
2019-05-17T19:44:06.182Z,28.90
2019-05-17T19:46:37.026Z,28.90
2019-05-17T19:49:08.030Z,28.90
2019-05-17T19:51:38.756Z,28.90
2019-05-17T19:54:09.547Z,28.90
2019-05-17T19:56:40.429Z,28.90
2019-05-17T19:59:11.357Z,28.80
2019-05-17T20:01:42.517Z,28.80
2019-05-17T20:04:13.281Z,28.80
2019-05-17T20:06:44.141Z,28.80
2019-05-17T20:09:14.861Z,28.80
2019-05-17T20:11:45.763Z,28.70
2019-05-17T20:14:16.548Z,28.80
2019-05-17T20:16:47.296Z,28.70
2019-05-17T20:19:18.193Z,28.70
2019-05-17T20:21:48.920Z,28.60
2019-05-17T20:24:19.890Z,28.60
2019-05-17T20:26:50.813Z,28.60
2019-05-17T20:29:21.799Z,28.60
2019-05-17T20:31:52.568Z,28.50
2019-05-17T20:34:23.357Z,28.50
2019-05-17T20:36:54.229Z,28.50
2019-05-17T20:39:25.017Z,28.50
2019-05-17T20:41:57.516Z,28.50
2019-05-17T20:44:28.158Z,28.50
2019-05-17T20:46:59.771Z,28.40
2019-05-17T20:49:30.676Z,28.40
2019-05-17T20:52:01.368Z,28.40
2019-05-17T20:54:32.037Z,28.40
2019-05-17T20:57:02.944Z,28.30
2019-05-17T20:59:34.064Z,28.30
2019-05-17T21:02:04.876Z,28.30
2019-05-17T21:04:35.862Z,28.30
2019-05-17T21:07:06.824Z,28.20
2019-05-17T21:09:37.626Z,28.20
2019-05-17T21:12:08.620Z,28.20
2019-05-17T21:14:40.261Z,28.20
2019-05-17T21:17:11.232Z,28.20
2019-05-17T21:19:42.031Z,28.20
2019-05-17T21:22:12.988Z,28.20
2019-05-17T21:24:43.793Z,28.20
2019-05-17T21:27:14.557Z,28.20
2019-05-17T21:29:45.338Z,28.20
2019-05-17T21:32:16.226Z,28.20
2019-05-17T21:34:47.111Z,28.20
2019-05-17T21:37:18.473Z,28.20
2019-05-17T21:39:49.280Z,28.20
2019-05-17T21:42:20.046Z,28.20
2019-05-17T21:44:50.809Z,28.20
2019-05-17T21:47:21.688Z,28.20
2019-05-17T21:49:52.661Z,28.20
2019-05-17T21:52:23.564Z,28.20
2019-05-17T21:54:54.394Z,28.20
2019-05-17T21:57:26.166Z,28.20
2019-05-17T21:59:56.992Z,28.10
2019-05-17T22:02:27.894Z,28.10
2019-05-17T22:04:58.633Z,28.10
2019-05-17T22:07:29.478Z,28.10
2019-05-17T22:10:00.298Z,28.10
2019-05-17T22:12:31.349Z,28.10
2019-05-17T22:15:02.189Z,28.10
2019-05-17T22:17:33.102Z,28.10
2019-05-17T22:20:04.025Z,28.10
2019-05-17T22:22:34.713Z,28.10
2019-05-17T22:25:06.628Z,28.10
2019-05-17T22:27:37.433Z,28.00
